Terminal Aerodrome Forecast
Issued by NWS Cleveland, OH

Home | Current Version | Previous Version | Text Only | Print | Product List | Glossary Off
Versions: 1 2 3 4 5 6 7 8 9 10 11 12 13 14

273
FTUS41 KCLE 211947 AAA
TAFCAK
TAF AMD
KCAK 211947Z 2120/2218 03010KT P6SM BKN008 OVC018
      TEMPO 2120/2122 4SM -DZ BR SCT005 OVC020
     FM220100 01005KT 5SM BR BKN025 OVC070
     FM220800 32003KT 4SM BR SCT025 BKN100
     FM221500 33008KT P6SM VCSH OVC025=

USA.gov is the U.S. government's official web portal to all federal, state and local government web resources and services.